Time;durP1;ratioP1;P1;durP2;ratioP2;P2;SDS_P1;SDS_P2;PMS_P1;PMS_P2;Temp;Humidity;BMP_temperature;BMP_pressure;BME280_temperature;BME280_humidity;BME280_pressure;Samples;Min_cycle;Max_cycle;Signal;HPM_P1;HPM_P2
2021/09/27 00:00:27;;;;;;;29.38;20.17;;;;;;;16.64;100.00;100614.19;4992965;28;20045;-65
2021/09/27 00:03:11;;;;;;;28.80;20.40;;;;;;;16.71;100.00;100616.03;4993522;28;20049;-65
2021/09/27 00:05:56;;;;;;;29.27;20.10;;;;;;;16.68;100.00;100616.34;4993654;28;20096;-65
2021/09/27 00:08:40;;;;;;;26.00;18.73;;;;;;;16.64;100.00;100616.88;4992870;28;20411;-65
2021/09/27 00:11:26;;;;;;;30.20;19.23;;;;;;;16.65;100.00;100613.16;4993791;28;20068;-65
2021/09/27 00:14:10;;;;;;;26.88;18.58;;;;;;;16.61;100.00;100604.63;4992537;28;20045;-65
2021/09/27 00:16:54;;;;;;;33.38;19.60;;;;;;;16.65;100.00;100614.00;4992513;28;20071;-66
2021/09/27 00:19:38;;;;;;;31.70;20.90;;;;;;;16.69;100.00;100612.63;4993742;28;20053;-65
2021/09/27 00:22:23;;;;;;;31.25;20.75;;;;;;;16.69;100.00;100609.94;4992501;28;20102;-65
2021/09/27 00:25:08;;;;;;;35.33;21.40;;;;;;;16.69;100.00;100611.81;4994230;28;20116;-65
2021/09/27 00:27:52;;;;;;;35.22;20.98;;;;;;;16.74;100.00;100615.66;4982730;28;20098;-66
2021/09/27 00:30:37;;;;;;;32.25;20.27;;;;;;;16.76;100.00;100612.78;4996230;28;20510;-65
2021/09/27 00:33:22;;;;;;;34.58;21.35;;;;;;;16.73;100.00;100619.38;4996086;28;20050;-65
2021/09/27 00:36:07;;;;;;;31.30;20.90;;;;;;;16.74;100.00;100609.41;4996100;28;20049;-65
2021/09/27 00:38:50;;;;;;;31.92;21.45;;;;;;;16.73;100.00;100613.97;4996168;28;20057;-65
2021/09/27 00:41:35;;;;;;;32.42;21.60;;;;;;;16.69;100.00;100607.25;4996537;28;20415;-66
2021/09/27 00:44:20;;;;;;;40.00;20.85;;;;;;;16.70;100.00;100608.94;4982506;28;20042;-65
2021/09/27 00:47:04;;;;;;;30.92;20.75;;;;;;;16.65;100.00;100605.94;4996073;28;20521;-65
2021/09/27 00:49:49;;;;;;;30.88;21.55;;;;;;;16.66;100.00;100604.91;4982575;28;20077;-66
2021/09/27 00:52:33;;;;;;;30.65;22.25;;;;;;;16.63;100.00;100593.66;4982667;28;20044;-65
2021/09/27 00:55:19;;;;;;;34.33;22.40;;;;;;;16.66;100.00;100590.59;4995737;28;20053;-65
2021/09/27 00:58:03;;;;;;;31.08;21.55;;;;;;;16.70;100.00;100591.94;4982245;28;20525;-66
2021/09/27 01:00:48;;;;;;;35.05;20.65;;;;;;;16.73;100.00;100591.59;4995896;28;20118;-65
2021/09/27 01:03:32;;;;;;;31.15;20.75;;;;;;;16.72;100.00;100590.78;4995792;28;20045;-65
2021/09/27 01:06:47;;;;;;;33.80;19.45;;;;;;;16.71;100.00;100588.25;4995429;28;20053;-65
2021/09/27 01:09:58;;;;;;;28.35;19.75;;;;;;;16.69;100.00;100585.72;4995757;28;20176;-65
2021/09/27 01:12:46;;;;;;;27.30;19.52;;;;;;;16.65;100.00;100586.25;4995683;28;20045;-65
2021/09/27 01:16:03;;;;;;;27.98;18.85;;;;;;;16.63;100.00;100582.88;4996796;28;20053;-65
2021/09/27 01:19:06;;;;;;;26.65;16.80;;;;;;;16.60;100.00;100576.00;4995569;28;20104;-65
2021/09/27 01:22:00;;;;;;;24.98;18.42;;;;;;;16.58;100.00;100578.03;4996489;28;20084;-66
2021/09/27 01:25:02;;;;;;;;;;;;;;;16.55;100.00;100577.53;4981851;28;20509;-66
2021/09/27 01:28:15;;;;;;;26.05;17.67;;;;;;;16.45;100.00;100569.69;4995386;28;19921;-65
2021/09/27 01:31:05;;;;;;;26.30;17.02;;;;;;;16.42;100.00;100572.72;4981513;28;20146;-65
2021/09/27 01:34:21;;;;;;;27.83;19.13;;;;;;;16.40;100.00;100577.44;4996264;28;20041;-65
2021/09/27 01:37:10;;;;;;;27.48;18.25;;;;;;;16.37;100.00;100577.78;4990283;28;20137;-65
2021/09/27 01:40:13;;;;;;;26.33;17.10;;;;;;;16.38;100.00;100574.06;4996013;28;20586;-65
2021/09/27 01:43:14;;;;;;;26.60;17.33;;;;;;;16.36;100.00;100586.88;4995057;28;20511;-65
2021/09/27 01:46:06;;;;;;;24.48;17.45;;;;;;;16.38;100.00;100590.22;4994965;28;20044;-65
2021/09/27 01:48:58;;;;;;;25.17;17.33;;;;;;;16.41;100.00;100589.03;4981308;28;20053;-65
2021/09/27 01:51:51;;;;;;;26.88;18.30;;;;;;;16.42;100.00;100578.13;4994729;28;20117;-65
2021/09/27 01:54:47;;;;;;;25.10;16.58;;;;;;;16.38;100.00;100576.78;4994915;28;20048;-65
2021/09/27 01:58:03;;;;;;;27.55;17.92;;;;;;;16.34;100.00;100572.72;4994859;28;20053;-65
2021/09/27 02:00:51;;;;;;;28.23;18.75;;;;;;;16.32;100.00;100572.06;4994718;28;20049;-65
2021/09/27 02:04:09;;;;;;;25.08;18.50;;;;;;;16.27;100.00;100563.66;4994409;28;20045;-65
2021/09/27 02:06:55;;;;;;;27.33;18.95;;;;;;;16.23;100.00;100569.56;4991910;28;20128;-66
2021/09/27 02:09:48;;;;;;;30.50;19.25;;;;;;;16.19;100.00;100566.38;4995575;28;20120;-65
2021/09/27 02:13:05;;;;;;;29.30;20.25;;;;;;;16.16;100.00;100572.09;4995289;28;20044;-65
2021/09/27 02:15:56;;;;;;;26.13;18.70;;;;;;;16.10;100.00;100561.19;4993076;28;20072;-65
2021/09/27 02:18:48;;;;;;;28.60;18.83;;;;;;;16.07;100.00;100573.13;4994478;28;20048;-65
2021/09/27 02:21:37;;;;;;;32.10;19.45;;;;;;;16.03;100.00;100571.81;4980712;28;20118;-65
2021/09/27 02:24:32;;;;;;;31.67;19.45;;;;;;;15.99;100.00;100575.84;4994293;28;20108;-65
2021/09/27 02:27:16;;;;;;;30.65;19.35;;;;;;;15.93;100.00;100573.00;4980651;28;20053;-66
2021/09/27 02:30:00;;;;;;;31.63;20.55;;;;;;;15.89;100.00;100577.91;4994986;28;20053;-65
2021/09/27 02:32:50;;;;;;;33.53;20.40;;;;;;;15.85;100.00;100579.22;4994380;28;20096;-65
2021/09/27 02:35:48;;;;;;;31.65;20.13;;;;;;;15.83;100.00;100586.63;4993968;28;20053;-65
2021/09/27 02:38:45;;;;;;;33.00;22.02;;;;;;;15.77;100.00;100581.09;4994073;28;20048;-65
2021/09/27 02:41:47;;;;;;;33.42;21.63;;;;;;;15.75;100.00;100588.50;4994032;28;20053;-65
2021/09/27 02:44:32;;;;;;;32.17;21.15;;;;;;;15.68;100.00;100592.88;4993680;28;20045;-65
2021/09/27 02:47:22;;;;;;;38.50;23.08;;;;;;;15.67;100.00;100597.38;4993076;28;20044;-65
2021/09/27 02:50:10;;;;;;;36.50;21.42;;;;;;;15.67;100.00;100594.69;4993841;28;20064;-65
2021/09/27 02:52:55;;;;;;;33.58;21.33;;;;;;;15.64;100.00;100595.03;4993550;28;20047;-65
2021/09/27 02:55:54;;;;;;;35.40;23.85;;;;;;;15.65;100.00;100595.91;4994457;28;20109;-65
2021/09/27 02:58:47;;;;;;;36.72;22.98;;;;;;;15.63;100.00;100590.69;4994701;28;20112;-65
2021/09/27 03:01:55;;;;;;;36.22;22.00;;;;;;;15.57;100.00;100594.03;4993800;28;20132;-65
2021/09/27 03:05:13;;;;;;;40.55;22.60;;;;;;;15.55;100.00;100586.31;4993872;28;20562;-65
2021/09/27 03:08:22;;;;;;;39.45;23.67;;;;;;;15.53;100.00;100583.78;4994563;28;20045;-65
2021/09/27 03:11:33;;;;;;;40.00;23.55;;;;;;;15.52;100.00;100575.91;4994485;28;20057;-65
2021/09/27 03:14:54;;;;;;;38.90;23.85;;;;;;;15.51;100.00;100568.84;4994450;28;20084;-65
2021/09/27 03:18:00;;;;;;;43.53;24.00;;;;;;;15.48;100.00;100571.84;4994411;28;20049;-64
2021/09/27 03:20:53;;;;;;;38.08;23.60;;;;;;;15.48;100.00;100567.34;4993370;28;20104;-65
2021/09/27 03:24:05;;;;;;;36.38;21.95;;;;;;;15.38;100.00;100563.13;4994240;28;20128;-65
2021/09/27 03:27:06;;;;;;;36.55;22.25;;;;;;;15.28;100.00;100557.03;4979443;28;20057;-65
2021/09/27 03:30:06;;;;;;;37.40;23.25;;;;;;;15.18;100.00;100559.06;4993943;28;20049;-66
2021/09/27 03:33:26;;;;;;;39.85;22.95;;;;;;;15.11;100.00;100566.94;4993210;28;20100;-65
2021/09/27 03:36:14;;;;;;;34.53;22.25;;;;;;;15.02;100.00;100554.50;4993090;28;20065;-66
2021/09/27 03:39:29;;;;;;;43.70;23.23;;;;;;;14.94;100.00;100548.28;4992811;28;20049;-65
2021/09/27 03:42:29;;;;;;;44.85;24.00;;;;;;;14.91;100.00;100548.63;4994021;28;20040;-65
2021/09/27 03:45:18;;;;;;;37.22;21.95;;;;;;;14.86;100.00;100550.94;4992952;28;20089;-65
2021/09/27 03:48:13;;;;;;;29.15;18.13;;;;;;;14.74;100.00;100563.00;4979034;28;20076;-66
2021/09/27 03:51:01;;;;;;;36.45;20.83;;;;;;;14.71;100.00;100569.53;4992753;28;20050;-65
2021/09/27 03:53:58;;;;;;;48.85;26.40;;;;;;;14.81;100.00;100566.72;4992942;28;20052;-65
2021/09/27 03:56:47;;;;;;;45.95;25.38;;;;;;;14.82;100.00;100565.72;4992767;28;20057;-65
2021/09/27 03:59:48;;;;;;;31.17;20.20;;;;;;;14.72;100.00;100559.66;4993574;28;20052;-66
2021/09/27 04:02:54;;;;;;;29.73;17.52;;;;;;;14.61;100.00;100557.28;4996857;28;20049;-65
2021/09/27 04:06:03;;;;;;;36.33;20.23;;;;;;;14.58;100.00;100554.91;4997680;28;20045;-66
2021/09/27 04:08:59;;;;;;;32.10;19.15;;;;;;;14.48;100.00;100563.09;4996919;28;20092;-65
2021/09/27 04:12:15;;;;;;;29.13;18.75;;;;;;;14.41;100.00;100561.22;4997499;28;20549;-65
2021/09/27 04:15:25;;;;;;;29.27;18.30;;;;;;;14.33;100.00;100574.59;4995957;28;20470;-65
2021/09/27 04:18:27;;;;;;;27.27;17.15;;;;;;;14.25;100.00;100577.22;4982919;28;20108;-66
2021/09/27 04:21:21;;;;;;;26.80;16.88;;;;;;;14.19;100.00;100567.16;4997333;28;20057;-65
2021/09/27 04:24:39;;;;;;;27.80;17.17;;;;;;;14.13;100.00;100571.28;4996528;28;20056;-65
2021/09/27 04:27:32;;;;;;;23.50;15.18;;;;;;;14.07;100.00;100573.75;4997238;28;20045;-65
2021/09/27 04:30:24;;;;;;;27.33;16.70;;;;;;;14.01;100.00;100574.38;4997155;28;20048;-65
2021/09/27 04:33:30;;;;;;;28.92;17.88;;;;;;;13.96;100.00;100572.19;4996414;28;20550;-66
2021/09/27 04:36:21;;;;;;;34.85;20.63;;;;;;;13.93;100.00;100568.97;4996287;28;20045;-66
2021/09/27 04:39:14;;;;;;;29.60;18.98;;;;;;;13.90;100.00;100570.16;4996106;28;20070;-65
2021/09/27 04:42:04;;;;;;;27.13;17.15;;;;;;;13.86;100.00;100571.44;4982485;28;20411;-65
2021/09/27 04:44:54;;;;;;;25.10;16.65;;;;;;;13.82;100.00;100577.28;4996807;28;20062;-66
2021/09/27 04:47:47;;;;;;;27.85;18.27;;;;;;;13.80;100.00;100576.59;4996854;28;20049;-65
2021/09/27 04:50:37;;;;;;;32.87;17.97;;;;;;;13.76;100.00;100583.28;4996107;28;20145;-65
2021/09/27 04:53:55;;;;;;;26.52;16.45;;;;;;;13.71;100.00;100575.72;4996995;28;20267;-66
2021/09/27 04:57:07;;;;;;;27.00;16.55;;;;;;;13.68;100.00;100583.22;4996457;28;20105;-66
2021/09/27 05:00:17;;;;;;;27.40;16.95;;;;;;;13.65;100.00;100575.50;4982150;28;20092;-65
2021/09/27 05:03:08;;;;;;;30.40;18.42;;;;;;;13.60;100.00;100589.38;4982170;28;20049;-65
2021/09/27 05:06:53;;;;;;;40.72;22.20;;;;;;;13.60;100.00;100596.53;4996409;28;20097;-66
2021/09/27 05:09:59;;;;;;;34.17;19.88;;;;;;;13.58;100.00;100593.19;4946817;28;20562;-66
2021/09/27 05:13:31;;;;;;;43.15;23.70;;;;;;;13.60;100.00;100591.19;4995394;28;20045;-65
2021/09/27 05:16:24;;;;;;;39.90;21.13;;;;;;;13.60;100.00;100591.19;4996381;28;20530;-66
2021/09/27 05:20:03;;;;;;;37.60;20.60;;;;;;;13.63;100.00;100588.19;4996161;28;20092;-65
2021/09/27 05:23:25;;;;;;;39.05;21.02;;;;;;;13.70;100.00;100589.25;4996096;28;20100;-66
2021/09/27 05:26:17;;;;;;;30.63;18.05;;;;;;;13.76;100.00;100594.00;4980084;28;20093;-65
2021/09/27 05:29:14;;;;;;;31.98;18.58;;;;;;;13.82;100.00;100585.31;4995454;28;20049;-65
2021/09/27 05:32:19;;;;;;;30.65;18.65;;;;;;;13.90;100.00;100594.28;4995283;28;20136;-65
2021/09/27 05:35:18;;;;;;;32.50;20.50;;;;;;;14.00;100.00;100594.16;4994932;28;20045;-65
2021/09/27 05:38:09;;;;;;;38.35;21.60;;;;;;;14.08;100.00;100588.84;4996136;28;20471;-66
2021/09/27 05:41:06;;;;;;;32.10;19.67;;;;;;;14.17;100.00;100585.25;4995073;28;20108;-65
2021/09/27 05:43:56;;;;;;;35.85;20.17;;;;;;;14.27;100.00;100585.97;4994663;28;20068;-66
2021/09/27 05:46:56;;;;;;;31.60;18.98;;;;;;;14.34;100.00;100592.34;4994684;28;20120;-65
2021/09/27 05:50:03;;;;;;;27.77;17.80;;;;;;;14.36;100.00;100590.34;4994695;28;20085;-65
2021/09/27 05:53:05;;;;;;;28.08;18.15;;;;;;;14.33;100.00;100585.31;4995191;28;20045;-65
2021/09/27 05:56:07;;;;;;;28.52;16.95;;;;;;;14.29;100.00;100589.31;4995507;28;20053;-65
2021/09/27 05:59:02;;;;;;;27.67;17.25;;;;;;;14.28;100.00;100584.97;4980980;28;20568;-65
2021/09/27 06:01:49;;;;;;;33.33;19.67;;;;;;;14.28;100.00;100582.28;4995394;28;20049;-64
2021/09/27 06:05:21;;;;;;;29.90;18.30;;;;;;;14.29;100.00;100578.59;4995706;28;20121;-65
2021/09/27 06:08:07;;;;;;;30.85;18.70;;;;;;;14.31;100.00;100584.63;4979165;28;20053;-66
2021/09/27 06:11:15;;;;;;;30.95;18.63;;;;;;;14.36;100.00;100585.84;4980580;28;20572;-65
2021/09/27 06:13:59;;;;;;;29.05;17.52;;;;;;;14.39;100.00;100579.31;4994570;28;20118;-65
2021/09/27 06:17:06;;;;;;;31.92;19.70;;;;;;;14.47;100.00;100576.69;4980981;28;20133;-65
2021/09/27 06:20:10;;;;;;;33.92;19.38;;;;;;;14.64;100.00;100573.03;4980720;28;20173;-66
2021/09/27 06:23:32;;;;;;;40.28;22.80;;;;;;;14.90;100.00;100576.47;4993365;28;20066;-65
2021/09/27 06:26:17;;;;;;;42.83;24.92;;;;;;;15.14;100.00;100576.50;4987035;28;20088;-66
2021/09/27 06:29:13;;;;;;;38.88;21.85;;;;;;;15.26;100.00;100575.19;4994017;28;20502;-65
2021/09/27 06:32:05;;;;;;;34.10;21.67;;;;;;;15.36;100.00;100576.75;4994209;28;20064;-66
2021/09/27 06:34:52;;;;;;;40.10;21.70;;;;;;;15.48;100.00;100574.53;4994055;28;20049;-66
2021/09/27 06:37:36;;;;;;;35.83;22.25;;;;;;;15.51;100.00;100574.22;4993951;28;20049;-66
2021/09/27 06:40:21;;;;;;;33.42;20.83;;;;;;;15.54;100.00;100574.75;4980379;28;20053;-65
2021/09/27 06:43:08;;;;;;;34.90;20.70;;;;;;;15.63;100.00;100573.69;4993972;28;20052;-65
2021/09/27 06:45:53;;;;;;;28.92;18.15;;;;;;;15.73;100.00;100577.06;4993918;28;20049;-65
2021/09/27 06:48:37;;;;;;;28.75;19.23;;;;;;;15.83;100.00;100592.00;4980400;28;20073;-65
2021/09/27 06:51:21;;;;;;;36.13;20.42;;;;;;;15.91;100.00;100593.84;4993568;28;20053;-65
2021/09/27 06:54:05;;;;;;;32.03;20.38;;;;;;;16.03;100.00;100593.31;4993788;28;20045;-65
2021/09/27 06:56:49;;;;;;;31.80;19.35;;;;;;;16.16;100.00;100585.56;4994244;28;20100;-65
2021/09/27 06:59:33;;;;;;;31.38;20.52;;;;;;;16.27;100.00;100585.19;4993767;28;20101;-65
2021/09/27 07:02:18;;;;;;;32.80;19.30;;;;;;;16.38;100.00;100582.16;4993651;28;20461;-65
2021/09/27 07:05:02;;;;;;;29.77;19.20;;;;;;;16.47;100.00;100578.41;4994261;28;20049;-66
2021/09/27 07:07:46;;;;;;;30.85;19.83;;;;;;;16.62;100.00;100578.53;4993610;28;20049;-65
2021/09/27 07:10:30;;;;;;;29.83;19.70;;;;;;;16.76;100.00;100572.38;4993590;28;20559;-66
2021/09/27 07:13:14;;;;;;;31.80;19.08;;;;;;;16.95;100.00;100575.50;4993394;28;20565;-65
2021/09/27 07:15:58;;;;;;;28.65;18.80;;;;;;;17.17;100.00;100581.91;4993243;28;20104;-65
2021/09/27 07:18:42;;;;;;;28.23;18.75;;;;;;;17.32;100.00;100574.72;4993535;28;20049;-66
2021/09/27 07:21:26;;;;;;;28.65;18.35;;;;;;;17.59;100.00;100574.22;4994174;28;20049;-65
2021/09/27 07:24:12;;;;;;;27.23;18.20;;;;;;;17.74;100.00;100575.94;4979562;28;20408;-65
2021/09/27 07:26:56;;;;;;;23.30;16.88;;;;;;;17.87;100.00;100578.84;4992998;28;20101;-65
2021/09/27 07:29:39;;;;;;;23.27;16.38;;;;;;;17.84;100.00;100573.81;4993294;28;20591;-66
2021/09/27 07:32:23;;;;;;;22.80;15.63;;;;;;;18.05;100.00;100582.03;4993001;28;20506;-66
2021/09/27 07:35:09;;;;;;;23.80;15.80;;;;;;;18.03;100.00;100589.44;4993936;28;20045;-66
2021/09/27 07:37:53;;;;;;;21.27;15.13;;;;;;;18.08;100.00;100599.69;4979229;28;20084;-65
2021/09/27 07:40:38;;;;;;;22.63;14.77;;;;;;;18.15;100.00;100603.34;4993833;28;20049;-65
2021/09/27 07:43:22;;;;;;;21.83;14.40;;;;;;;18.17;100.00;100606.69;4994216;28;20530;-66
2021/09/27 07:46:06;;;;;;;20.27;14.77;;;;;;;18.28;100.00;100588.19;4979452;28;20084;-66
2021/09/27 07:48:51;;;;;;;18.92;14.48;;;;;;;18.35;100.00;100591.88;4992861;28;20053;-65
2021/09/27 07:51:37;;;;;;;18.15;13.75;;;;;;;18.29;100.00;100595.28;4993104;28;20231;-65
2021/09/27 07:54:21;;;;;;;19.88;12.80;;;;;;;18.49;100.00;100596.41;4979634;28;20070;-66
2021/09/27 07:57:05;;;;;;;17.88;13.68;;;;;;;18.46;100.00;100586.81;4979128;28;20085;-65
2021/09/27 07:59:53;;;;;;;20.63;13.85;;;;;;;18.57;100.00;100588.22;4993107;28;20045;-66
2021/09/27 08:02:36;;;;;;;16.55;12.45;;;;;;;18.70;100.00;100591.94;4993814;28;20050;-66
2021/09/27 08:05:23;;;;;;;15.65;12.63;;;;;;;18.90;100.00;100595.69;4992581;28;20168;-65
2021/09/27 08:08:07;;;;;;;15.20;11.50;;;;;;;19.10;100.00;100595.94;4993644;28;20057;-65
2021/09/27 08:10:51;;;;;;;15.88;12.57;;;;;;;19.29;100.00;100585.34;4992625;28;20482;-66
2021/09/27 08:13:34;;;;;;;15.13;12.20;;;;;;;19.39;100.00;100585.88;4992908;28;20053;-66
2021/09/27 08:16:18;;;;;;;12.98;10.32;;;;;;;19.22;100.00;100584.47;4978872;28;20133;-66
2021/09/27 08:19:03;;;;;;;14.75;11.35;;;;;;;19.36;100.00;100591.69;4992912;28;20403;-65
2021/09/27 08:21:46;;;;;;;12.95;10.75;;;;;;;19.41;100.00;100588.41;4992972;28;20049;-65
2021/09/27 08:24:30;;;;;;;13.23;10.85;;;;;;;19.48;100.00;100583.91;4992680;28;20550;-65
2021/09/27 08:27:14;;;;;;;;;;;;;;;19.42;100.00;100580.09;4993068;28;20506;-65
2021/09/27 08:29:58;;;;;;;14.27;9.87;;;;;;;19.45;100.00;100579.72;4992984;28;19920;-65
2021/09/27 08:32:42;;;;;;;12.52;10.65;;;;;;;19.32;100.00;100579.59;4993635;28;20307;-65
2021/09/27 08:35:29;;;;;;;12.88;10.18;;;;;;;19.21;100.00;100576.53;4978542;28;20045;-65
2021/09/27 08:38:15;;;;;;;13.88;9.95;;;;;;;19.26;100.00;100584.91;4992336;28;20050;-65
2021/09/27 08:41:06;;;;;;;14.52;10.55;;;;;;;19.42;100.00;100579.25;4992233;28;20049;-65
2021/09/27 08:43:59;;;;;;;13.02;9.20;;;;;;;19.36;100.00;100582.72;4992208;28;20412;-66
2021/09/27 08:46:49;;;;;;;12.63;9.18;;;;;;;19.55;100.00;100577.53;4995887;28;20100;-65
2021/09/27 08:49:56;;;;;;;15.80;9.70;;;;;;;19.76;100.00;100587.47;4996137;28;20053;-65
2021/09/27 08:52:40;;;;;;;10.57;8.85;;;;;;;19.88;100.00;100585.88;4995789;28;20111;-65
2021/09/27 08:55:26;;;;;;;12.02;8.88;;;;;;;20.03;97.34;100586.66;4995802;28;20057;-66
2021/09/27 08:58:20;;;;;;;11.13;8.85;;;;;;;19.87;98.19;100592.34;4995673;28;20415;-66
2021/09/27 09:01:11;;;;;;;10.67;8.97;;;;;;;19.90;98.98;100581.97;4981919;28;20053;-66
2021/09/27 09:04:01;;;;;;;15.45;8.82;;;;;;;20.31;96.67;100588.31;4996626;28;20121;-66
2021/09/27 09:06:50;;;;;;;11.90;9.27;;;;;;;20.45;95.08;100576.56;4995749;28;20073;-66
2021/09/27 09:12:36;;;;;;;13.38;9.43;;;;;;;20.85;92.58;100578.44;4937844;29;20450;-66
2021/09/27 09:15:24;;;;;;;9.93;8.35;;;;;;;21.20;88.94;100569.97;4937741;29;20054;-66
2021/09/27 09:18:16;;;;;;;9.73;7.45;;;;;;;21.28;84.48;100588.78;4924024;29;20058;-66
2021/09/27 09:21:04;;;;;;;12.88;8.57;;;;;;;21.73;84.46;100582.63;4937280;29;20099;-66
2021/09/27 09:23:54;;;;;;;11.90;7.40;;;;;;;22.49;81.33;100576.50;4937579;29;20046;-66
2021/09/27 09:26:42;;;;;;;9.32;8.10;;;;;;;24.00;71.42;100570.00;4923874;29;20070;-66
2021/09/27 09:29:29;;;;;;;10.38;7.55;;;;;;;25.18;64.75;100570.31;4923847;29;20114;-66
2021/09/27 09:32:21;;;;;;;7.75;6.80;;;;;;;25.52;62.02;100569.66;4923999;29;20086;-66
2021/09/27 09:35:35;;;;;;;7.82;6.38;;;;;;;26.64;57.25;100567.50;4923728;29;20070;-66
2021/09/27 09:38:24;;;;;;;7.00;6.07;;;;;;;26.85;57.02;100572.31;4938407;29;20520;-66
2021/09/27 09:41:09;;;;;;;7.40;5.85;;;;;;;27.37;54.66;100567.38;4937765;29;20058;-66
2021/09/27 09:43:53;;;;;;;12.13;6.65;;;;;;;28.23;52.61;100564.19;4923667;29;20051;-66
2021/09/27 09:46:37;;;;;;;7.97;6.07;;;;;;;29.83;49.26;100561.50;4923791;29;20051;-67
2021/09/27 09:49:21;;;;;;;8.10;5.97;;;;;;;31.01;44.89;100553.44;4924016;29;20461;-68
2021/09/27 09:52:05;;;;;;;10.20;5.50;;;;;;;31.36;41.72;100562.66;4937858;29;20416;-66
2021/09/27 09:54:49;;;;;;;6.35;5.65;;;;;;;30.14;43.24;100574.41;4937823;29;20050;-66
2021/09/27 09:57:37;;;;;;;5.60;4.65;;;;;;;30.27;44.29;100563.78;4923270;29;20069;-66
2021/09/27 10:00:42;;;;;;;6.82;5.43;;;;;;;30.10;43.58;100571.38;4923663;29;20082;-66
2021/09/27 10:03:33;;;;;;;8.50;5.18;;;;;;;30.97;42.08;100557.84;4936545;29;20047;-66
2021/09/27 10:06:24;;;;;;;6.50;4.93;;;;;;;32.95;39.42;100554.53;4923525;29;20054;-66
2021/09/27 10:09:37;;;;;;;6.63;5.35;;;;;;;33.41;36.63;100554.84;4923285;29;20469;-67
2021/09/27 10:12:39;;;;;;;5.07;4.30;;;;;;;35.05;34.85;100554.38;4937428;29;20086;-67
2021/09/27 10:15:44;;;;;;;5.10;4.50;;;;;;;32.46;37.70;100550.84;4937677;29;20043;-66
2021/09/27 10:18:31;;;;;;;5.63;4.45;;;;;;;33.11;36.66;100562.44;4922925;29;20054;-66
2021/09/27 10:21:18;;;;;;;6.95;4.70;;;;;;;34.27;35.95;100552.25;4937208;29;20054;-66
2021/09/27 10:24:30;;;;;;;8.43;4.47;;;;;;;34.81;34.13;100548.06;4937470;29;20094;-67
2021/09/27 10:27:43;;;;;;;6.18;4.88;;;;;;;33.84;34.97;100555.94;4922849;29;20055;-66
2021/09/27 10:30:39;;;;;;;6.30;4.03;;;;;;;34.97;33.08;100546.72;4923015;29;20054;-66
2021/09/27 10:33:25;;;;;;;7.45;4.47;;;;;;;34.62;33.28;100541.59;4936093;29;20528;-67
2021/09/27 10:36:29;;;;;;;4.35;3.97;;;;;;;33.95;34.01;100540.91;4936813;29;20119;-66
2021/09/27 10:39:14;;;;;;;;;;;;;;;34.90;32.93;100543.47;4923284;29;20465;-67
2021/09/27 10:42:03;;;;;;;4.15;3.75;;;;;;;35.84;31.31;100540.47;4922433;29;20299;-67
2021/09/27 10:44:52;;;;;;;5.30;3.78;;;;;;;36.71;30.78;100542.19;4922514;29;20122;-67
2021/09/27 10:47:41;;;;;;;3.60;3.30;;;;;;;36.78;30.61;100537.84;4922966;29;20101;-67
2021/09/27 10:50:28;;;;;;;4.18;3.70;;;;;;;36.13;29.93;100540.25;4922633;29;20091;-67
2021/09/27 10:53:33;;;;;;;4.22;3.83;;;;;;;34.20;33.76;100549.81;4922329;29;20046;-67
2021/09/27 10:56:34;;;;;;;3.83;3.53;;;;;;;32.90;36.12;100541.56;4936024;29;20050;-67
2021/09/27 10:59:28;;;;;;;4.47;4.07;;;;;;;32.81;36.70;100537.75;4936851;29;20138;-67
2021/09/27 11:02:22;;;;;;;4.10;3.80;;;;;;;31.23;39.30;100546.66;4936673;29;20054;-67
2021/09/27 11:05:15;;;;;;;5.57;3.42;;;;;;;29.52;42.15;100542.25;4936809;29;20047;-66
2021/09/27 11:08:51;;;;;;;5.20;3.40;;;;;;;28.78;43.94;100535.63;4935431;29;20524;-66
2021/09/27 11:11:41;;;;;;;3.70;3.35;;;;;;;29.47;43.47;100540.25;4930059;29;20054;-67
2021/09/27 11:14:32;;;;;;;3.60;3.30;;;;;;;29.87;42.33;100535.13;4922367;29;20469;-66
2021/09/27 11:17:24;;;;;;;4.82;3.40;;;;;;;30.64;41.31;100531.53;4935443;29;20106;-66
2021/09/27 11:20:33;;;;;;;6.00;3.55;;;;;;;30.16;41.58;100544.72;4935481;29;20086;-67
2021/09/27 11:23:31;;;;;;;4.80;3.55;;;;;;;29.95;43.08;100531.91;4936388;29;20055;-66
2021/09/27 11:26:15;;;;;;;4.47;4.07;;;;;;;29.53;43.01;100533.75;4935253;29;20046;-66
2021/09/27 11:29:17;;;;;;;6.32;3.75;;;;;;;30.38;42.25;100527.00;4936454;29;20098;-66
2021/09/27 11:32:12;;;;;;;5.15;3.92;;;;;;;29.57;41.78;100534.88;4936046;29;20082;-66
2021/09/27 11:35:17;;;;;;;5.60;3.67;;;;;;;27.83;46.77;100523.25;4936448;29;20095;-66
2021/09/27 11:38:07;;;;;;;6.10;3.58;;;;;;;27.95;46.19;100520.44;4935380;29;20050;-66
2021/09/27 11:40:55;;;;;;;3.38;3.03;;;;;;;27.04;47.88;100514.41;4936145;29;20050;-66
2021/09/27 11:44:00;;;;;;;4.00;3.58;;;;;;;26.25;49.32;100521.75;4921520;29;20111;-66
2021/09/27 11:47:16;;;;;;;3.88;3.50;;;;;;;26.30;50.75;100521.84;4936057;29;20055;-66
2021/09/27 11:50:08;;;;;;;4.28;2.97;;;;;;;26.26;50.66;100528.88;4935903;29;20054;-66
2021/09/27 11:53:09;;;;;;;5.15;3.17;;;;;;;26.09;49.71;100530.66;4936206;29;20094;-66
2021/09/27 11:56:15;;;;;;;3.67;3.20;;;;;;;26.67;49.79;100512.28;4936415;29;20054;-66
2021/09/27 11:59:23;;;;;;;5.35;3.55;;;;;;;27.23;47.49;100519.44;4934852;29;20050;-66
2021/09/27 12:02:07;;;;;;;3.67;3.03;;;;;;;28.84;43.50;100517.31;4934935;29;20062;-67
2021/09/27 12:05:15;;;;;;;3.95;3.10;;;;;;;29.21;42.60;100515.53;4936056;29;20050;-66
2021/09/27 12:08:09;;;;;;;5.50;3.22;;;;;;;30.51;39.38;100498.16;4934990;29;20046;-66
2021/09/27 12:10:59;;;;;;;3.95;3.00;;;;;;;31.09;38.22;100489.56;4935578;29;20094;-66
2021/09/27 12:13:43;;;;;;;4.28;3.40;;;;;;;30.57;39.63;100497.94;4934942;29;20413;-66
2021/09/27 12:16:37;;;;;;;3.85;3.08;;;;;;;29.74;40.99;100501.75;4934652;29;20134;-67
2021/09/27 12:19:25;;;;;;;10.10;3.33;;;;;;;30.65;40.50;100488.34;4921504;29;20504;-67
2021/09/27 12:22:18;;;;;;;4.35;3.17;;;;;;;29.53;40.20;100514.53;4938343;29;20054;-67
2021/09/27 12:25:11;;;;;;;4.80;3.33;;;;;;;30.40;39.39;100493.69;4925017;29;20091;-67
2021/09/27 12:28:01;;;;;;;5.47;3.07;;;;;;;31.32;37.99;100489.09;4924974;29;20054;-67
2021/09/27 12:30:57;;;;;;;3.28;2.95;;;;;;;31.49;37.72;100484.97;4939379;29;20099;-67
2021/09/27 12:33:41;;;;;;;5.65;3.17;;;;;;;31.23;37.19;100491.56;4925369;29;20183;-67
2021/09/27 12:36:25;;;;;;;4.18;2.72;;;;;;;33.03;35.89;100492.06;4939216;29;20054;-67
2021/09/27 12:39:09;;;;;;;6.03;3.35;;;;;;;32.34;36.64;100487.66;4939146;29;20476;-67
2021/09/27 12:41:55;;;;;;;4.80;3.40;;;;;;;32.18;36.54;100479.69;4938833;29;20074;-67
2021/09/27 12:44:44;;;;;;;5.07;3.75;;;;;;;32.25;36.74;100471.94;4937994;29;20416;-67
2021/09/27 12:47:28;;;;;;;4.47;3.15;;;;;;;32.30;36.41;100480.22;4924877;29;20565;-67
2021/09/27 12:50:18;;;;;;;3.40;3.10;;;;;;;30.64;39.46;100471.00;4937925;29;20154;-67
2021/09/27 12:53:12;;;;;;;3.60;3.30;;;;;;;29.03;42.81;100471.97;4924673;29;20054;-67
2021/09/27 12:55:56;;;;;;;4.43;3.88;;;;;;;29.05;43.83;100476.13;4938209;29;20511;-67
2021/09/27 12:58:43;;;;;;;4.30;3.50;;;;;;;29.89;41.02;100472.47;4938143;29;20421;-67
2021/09/27 13:01:29;;;;;;;3.83;3.47;;;;;;;31.65;38.53;100466.50;4937739;29;20115;-66
2021/09/27 13:04:21;;;;;;;4.82;3.58;;;;;;;30.28;39.51;100460.94;4937865;29;20088;-67
2021/09/27 13:07:10;;;;;;;4.25;3.25;;;;;;;29.40;41.86;100473.72;4924793;29;20187;-67
2021/09/27 13:10:43;;;;;;;4.00;3.47;;;;;;;27.63;46.07;100470.03;4923976;29;20409;-67
2021/09/27 13:13:32;;;;;;;3.47;3.15;;;;;;;26.25;49.05;100480.75;4938327;29;20102;-66